Time;durP1;ratioP1;P1;durP2;ratioP2;P2;SDS_P1;SDS_P2;PMS_P1;PMS_P2;Temp;Humidity;BMP_temperature;BMP_pressure;BME280_temperature;BME280_humidity;BME280_pressure;Samples;Min_cycle;Max_cycle;Signal;HPM_P1;HPM_P2
2020/12/06 05:00:37;;;;;;;35.95;19.33;;;3.50;99.90;;;;;;5905514;23;20273;-68
2020/12/06 05:03:07;;;;;;;27.30;17.10;;;3.60;99.90;;;;;;4979157;28;20685;-68
2020/12/06 05:05:35;;;;;;;27.90;17.02;;;3.60;99.90;;;;;;4977298;28;20751;-68
2020/12/06 05:08:06;;;;;;;33.30;18.63;;;3.60;99.90;;;;;;4977164;28;20208;-68
2020/12/06 05:10:40;;;;;;;27.63;16.27;;;3.60;99.90;;;;;;4982492;28;20224;-68
2020/12/06 05:13:07;;;;;;;37.20;19.55;;;3.60;99.90;;;;;;4977190;28;20216;-68
2020/12/06 05:15:34;;;;;;;32.13;18.30;;;3.70;99.90;;;;;;4977397;28;20220;-68
2020/12/06 05:18:02;;;;;;;30.10;19.35;;;3.70;99.90;;;;;;4976287;28;20212;-69
2020/12/06 05:20:29;;;;;;;31.42;19.45;;;3.70;99.90;;;;;;4977445;28;20585;-68
2020/12/06 05:22:55;;;;;;;30.02;17.85;;;3.70;99.90;;;;;;4976426;28;20209;-68
2020/12/06 05:25:22;;;;;;;29.92;18.92;;;3.70;99.90;;;;;;4977610;28;20556;-68
2020/12/06 05:27:48;;;;;;;32.45;20.27;;;3.70;99.90;;;;;;4976661;28;20212;-68
2020/12/06 05:30:14;;;;;;;27.75;19.33;;;3.70;99.90;;;;;;4976952;28;20562;-68
2020/12/06 05:32:41;;;;;;;30.65;17.48;;;3.70;99.90;;;;;;4973987;28;20216;-68
2020/12/06 05:35:09;;;;;;;36.00;17.50;;;3.70;99.90;;;;;;4976670;28;20250;-69
2020/12/06 05:37:36;;;;;;;27.95;18.30;;;3.80;99.90;;;;;;4976456;28;20212;-69
2020/12/06 05:40:05;;;;;;;34.40;19.95;;;3.80;99.90;;;;;;4967098;28;20217;-69
2020/12/06 05:42:32;;;;;;;29.77;19.05;;;3.80;99.90;;;;;;4957085;28;20205;-69
2020/12/06 05:44:58;;;;;;;30.48;22.30;;;3.80;99.90;;;;;;4957284;28;20212;-68
2020/12/06 05:47:24;;;;;;;30.27;18.42;;;3.80;99.90;;;;;;4956610;28;20259;-68
2020/12/06 05:49:50;;;;;;;30.25;18.55;;;3.80;99.90;;;;;;4957154;28;20213;-68
2020/12/06 05:52:18;;;;;;;31.42;19.70;;;3.90;99.90;;;;;;4956571;28;20290;-68
2020/12/06 05:54:44;;;;;;;28.30;19.33;;;3.90;99.90;;;;;;4957202;28;20209;-68
2020/12/06 05:57:12;;;;;;;28.85;18.17;;;3.90;99.90;;;;;;4959136;28;20283;-69
2020/12/06 05:59:39;;;;;;;30.88;19.45;;;3.90;99.90;;;;;;4956465;28;20574;-68
2020/12/06 06:02:06;;;;;;;25.08;17.63;;;3.90;99.90;;;;;;4973769;28;20232;-67
2020/12/06 06:04:38;;;;;;;24.85;14.93;;;3.90;99.90;;;;;;4975939;28;20267;-68
2020/12/06 06:07:06;;;;;;;31.58;18.38;;;3.90;99.90;;;;;;4973562;28;20255;-67
2020/12/06 06:09:41;;;;;;;33.83;18.95;;;3.90;99.90;;;;;;4975573;28;20352;-68
2020/12/06 06:12:30;;;;;;;27.90;16.70;;;3.90;99.90;;;;;;4975707;28;20231;-68
2020/12/06 06:14:58;;;;;;;27.52;17.08;;;3.90;99.90;;;;;;4976084;28;20297;-68
2020/12/06 06:17:25;;;;;;;24.38;15.75;;;3.90;99.90;;;;;;4967362;28;20207;-68
2020/12/06 06:19:52;;;;;;;26.90;16.77;;;3.90;99.90;;;;;;4975829;28;20205;-68
2020/12/06 06:22:23;;;;;;;29.98;17.50;;;3.90;99.90;;;;;;4975463;28;20652;-69
2020/12/06 06:24:52;;;;;;;30.02;18.33;;;3.90;99.90;;;;;;5138181;23;20225;-69
2020/12/06 06:27:18;;;;;;;29.65;16.85;;;3.90;99.90;;;;;;4956225;28;20212;-69
2020/12/06 06:29:45;;;;;;;31.27;18.88;;;3.90;99.90;;;;;;4956291;28;20669;-69
2020/12/06 06:32:11;;;;;;;30.38;17.92;;;3.90;99.90;;;;;;4955483;28;20229;-68
2020/12/06 06:34:39;;;;;;;29.88;18.45;;;4.00;99.90;;;;;;4973462;28;20208;-69
2020/12/06 06:37:13;;;;;;;31.65;18.00;;;4.00;99.90;;;;;;4975824;28;20294;-69
2020/12/06 06:39:40;;;;;;;28.85;18.25;;;4.00;99.90;;;;;;4968485;28;20569;-69
2020/12/06 06:42:10;;;;;;;34.25;19.55;;;4.00;99.90;;;;;;4955839;28;20229;-69
2020/12/06 06:44:37;;;;;;;32.70;18.10;;;4.00;99.90;;;;;;4956074;28;20209;-68
2020/12/06 06:47:05;;;;;;;29.55;18.15;;;4.00;99.90;;;;;;4956396;28;20204;-68
2020/12/06 06:49:34;;;;;;;30.95;18.27;;;4.10;99.90;;;;;;4955631;28;20225;-69
2020/12/06 06:52:03;;;;;;;32.40;19.63;;;4.10;99.90;;;;;;4955583;28;20299;-69
2020/12/06 06:54:31;;;;;;;33.15;18.65;;;4.00;99.90;;;;;;4956351;28;20264;-68
2020/12/06 06:56:59;;;;;;;28.75;18.38;;;4.10;99.90;;;;;;4956163;28;20225;-68
2020/12/06 06:59:39;;;;;;;28.23;19.48;;;4.10;99.90;;;;;;4963451;28;20312;-67
2020/12/06 07:02:06;;;;;;;32.75;18.73;;;4.10;99.90;;;;;;4974199;28;20247;-67
2020/12/06 07:04:32;;;;;;;29.52;18.63;;;4.10;99.90;;;;;;4972902;28;20270;-67
2020/12/06 07:06:59;;;;;;;25.88;18.05;;;4.20;99.90;;;;;;4974777;28;20668;-67
2020/12/06 07:09:27;;;;;;;26.30;18.08;;;4.20;99.90;;;;;;4974729;28;20590;-67
2020/12/06 07:11:55;;;;;;;31.00;18.45;;;4.20;99.90;;;;;;4968832;28;20704;-67
2020/12/06 07:14:26;;;;;;;34.97;18.52;;;4.20;99.90;;;;;;4955376;28;20218;-67
2020/12/06 07:16:53;;;;;;;33.22;19.83;;;4.20;99.90;;;;;;4954231;28;20229;-67
2020/12/06 07:19:20;;;;;;;35.75;19.30;;;4.20;99.90;;;;;;4955486;28;20209;-67
2020/12/06 07:21:47;;;;;;;30.40;19.02;;;4.20;99.90;;;;;;4973053;28;20283;-67
2020/12/06 07:24:14;;;;;;;29.95;19.73;;;4.30;99.90;;;;;;4967979;28;20212;-68
2020/12/06 07:26:41;;;;;;;28.60;17.67;;;4.30;99.90;;;;;;4955426;28;20210;-68
2020/12/06 07:29:08;;;;;;;31.27;19.80;;;4.20;99.90;;;;;;4955290;28;20292;-68
2020/12/06 07:31:34;;;;;;;21.00;13.98;;;4.20;99.90;;;;;;4954106;28;20248;-68
2020/12/06 07:34:02;;;;;;;32.70;18.27;;;4.30;99.90;;;;;;4955287;28;20355;-67
2020/12/06 07:36:30;;;;;;;28.83;19.02;;;4.30;99.90;;;;;;4956634;28;20602;-67
2020/12/06 07:38:57;;;;;;;29.48;17.73;;;4.30;99.90;;;;;;4955096;28;20300;-68
2020/12/06 07:41:23;;;;;;;28.42;16.70;;;4.30;99.90;;;;;;4954894;28;20233;-68
2020/12/06 07:43:52;;;;;;;33.42;19.25;;;4.30;99.90;;;;;;4955077;28;20265;-68
2020/12/06 07:46:20;;;;;;;29.92;19.80;;;4.30;99.90;;;;;;4954108;28;20209;-68
2020/12/06 07:48:47;;;;;;;34.05;19.95;;;4.30;99.90;;;;;;4955245;28;20235;-67
2020/12/06 07:51:23;;;;;;;28.00;16.60;;;4.30;99.90;;;;;;4954730;28;20728;-67
2020/12/06 07:53:50;;;;;;;30.90;18.73;;;4.30;99.90;;;;;;4960954;28;20204;-67
2020/12/06 07:56:19;;;;;;;27.70;17.90;;;4.30;99.90;;;;;;4973731;28;20685;-67
2020/12/06 07:58:57;;;;;;;29.38;19.58;;;4.40;99.90;;;;;;4974199;28;20689;-67
2020/12/06 08:01:26;;;;;;;32.53;19.08;;;4.40;99.90;;;;;;4972935;28;20243;-67
2020/12/06 08:03:55;;;;;;;34.55;19.20;;;4.40;99.90;;;;;;4973896;28;20300;-67
2020/12/06 08:06:25;;;;;;;29.67;18.42;;;4.40;99.90;;;;;;4974116;28;20209;-67
2020/12/06 08:08:55;;;;;;;28.08;17.33;;;4.40;99.90;;;;;;4974728;28;20267;-67
2020/12/06 08:11:23;;;;;;;32.88;18.92;;;4.40;99.90;;;;;;4972050;28;20228;-67
2020/12/06 08:13:51;;;;;;;30.02;18.02;;;4.40;99.90;;;;;;4974597;28;20267;-67
2020/12/06 08:16:18;;;;;;;31.35;19.85;;;4.40;99.90;;;;;;4973199;28;20228;-67
2020/12/06 08:18:44;;;;;;;33.80;20.38;;;4.40;99.90;;;;;;4974201;28;20392;-67
2020/12/06 08:21:10;;;;;;;29.80;19.48;;;4.50;99.90;;;;;;4973762;28;20240;-67
2020/12/06 08:23:39;;;;;;;24.08;17.55;;;4.50;99.90;;;;;;4968174;28;20201;-67
2020/12/06 08:26:06;;;;;;;25.63;18.75;;;4.50;99.90;;;;;;4955098;28;20256;-67
2020/12/06 08:28:32;;;;;;;34.88;20.73;;;4.50;99.90;;;;;;4954742;28;20267;-67
2020/12/06 08:30:59;;;;;;;30.98;19.58;;;4.50;99.90;;;;;;4952989;28;20629;-67
2020/12/06 08:33:26;;;;;;;28.00;19.45;;;4.50;99.90;;;;;;4954328;28;20217;-68
2020/12/06 08:35:53;;;;;;;34.47;18.50;;;4.50;99.90;;;;;;4954395;28;20299;-68
2020/12/06 08:38:21;;;;;;;28.45;18.65;;;4.50;99.90;;;;;;4954793;28;20206;-67
2020/12/06 08:40:59;;;;;;;33.70;19.70;;;4.50;99.90;;;;;;4953852;28;20236;-68
2020/12/06 08:43:39;;;;;;;33.58;20.08;;;4.60;99.90;;;;;;4955360;28;20212;-68
2020/12/06 08:46:06;;;;;;;26.35;17.30;;;4.60;99.90;;;;;;4953465;28;20212;-68
2020/12/06 08:48:32;;;;;;;35.38;19.45;;;4.60;99.90;;;;;;4954749;28;20205;-68
2020/12/06 08:50:58;;;;;;;30.50;19.45;;;4.50;99.90;;;;;;4953864;28;20277;-68
2020/12/06 08:53:24;;;;;;;34.45;19.75;;;4.60;99.90;;;;;;4959484;28;20610;-67
2020/12/06 08:55:50;;;;;;;32.00;19.15;;;4.50;99.90;;;;;;4973061;28;20279;-68
2020/12/06 08:58:28;;;;;;;34.10;16.25;;;4.60;99.90;;;;;;5148812;23;20318;-68
2020/12/06 09:00:54;;;;;;;31.70;19.95;;;4.60;99.90;;;;;;4954352;28;20272;-68
2020/12/06 09:03:20;;;;;;;29.75;19.45;;;4.60;99.90;;;;;;4953933;28;20618;-68
2020/12/06 09:05:46;;;;;;;33.28;21.55;;;4.60;99.90;;;;;;4953728;28;20209;-68
2020/12/06 09:08:12;;;;;;;31.98;20.30;;;4.60;99.90;;;;;;4953921;28;20209;-68
2020/12/06 09:10:38;;;;;;;31.27;21.70;;;4.60;99.90;;;;;;4954316;28;20650;-68
2020/12/06 09:13:04;;;;;;;34.75;19.48;;;4.70;99.90;;;;;;4953578;28;20268;-68
2020/12/06 09:15:31;;;;;;;34.65;21.95;;;4.70;99.90;;;;;;4956610;28;20247;-68
2020/12/06 09:17:57;;;;;;;38.05;22.42;;;4.70;99.90;;;;;;4972691;28;20213;-68
2020/12/06 09:20:24;;;;;;;30.58;20.45;;;4.70;99.90;;;;;;4972942;28;20268;-67
2020/12/06 09:22:50;;;;;;;34.20;20.73;;;4.70;99.90;;;;;;4972751;28;20209;-67
2020/12/06 09:25:16;;;;;;;29.15;20.67;;;4.70;99.90;;;;;;4973343;28;20342;-69
2020/12/06 09:27:42;;;;;;;32.63;20.77;;;4.80;99.90;;;;;;4972494;28;20204;-68
2020/12/06 09:30:08;;;;;;;32.08;20.42;;;4.80;99.90;;;;;;4972916;28;20213;-68
2020/12/06 09:32:35;;;;;;;36.67;19.88;;;4.80;99.90;;;;;;4971411;28;20213;-67
2020/12/06 09:35:01;;;;;;;30.42;21.38;;;4.80;99.90;;;;;;4974022;28;20267;-67
2020/12/06 09:37:27;;;;;;;27.20;18.20;;;4.80;99.90;;;;;;4975747;28;20759;-67
2020/12/06 09:39:53;;;;;;;35.90;22.83;;;4.80;99.90;;;;;;4976759;28;20216;-67
2020/12/06 09:42:21;;;;;;;35.53;20.77;;;4.80;99.90;;;;;;4976163;28;20237;-67
2020/12/06 09:44:49;;;;;;;31.63;20.25;;;4.80;99.90;;;;;;4976815;28;20313;-69
2020/12/06 09:47:15;;;;;;;31.98;20.42;;;4.80;99.90;;;;;;4976177;28;20205;-67
2020/12/06 09:49:42;;;;;;;34.67;21.08;;;4.80;99.90;;;;;;4975986;28;20271;-67
2020/12/06 09:52:08;;;;;;;33.28;20.13;;;4.90;99.90;;;;;;4976380;28;20614;-67
2020/12/06 09:54:34;;;;;;;29.42;17.95;;;4.90;99.90;;;;;;4977097;28;20253;-67
2020/12/06 09:57:03;;;;;;;32.95;19.55;;;4.90;99.90;;;;;;4975667;28;20295;-67
2020/12/06 09:59:29;;;;;;;33.45;19.88;;;4.90;99.90;;;;;;4976680;28;20208;-67
2020/12/06 10:01:55;;;;;;;32.45;20.52;;;4.90;99.90;;;;;;4975347;28;20230;-67
2020/12/06 10:04:21;;;;;;;34.70;19.05;;;4.90;99.90;;;;;;4976098;28;20619;-68
2020/12/06 10:06:48;;;;;;;28.52;20.00;;;4.90;99.90;;;;;;4976653;28;20208;-67
2020/12/06 10:09:14;;;;;;;33.15;20.00;;;5.00;99.90;;;;;;4976246;28;20204;-67
2020/12/06 10:11:40;;;;;;;31.67;19.60;;;5.00;99.90;;;;;;4976035;28;20228;-67
2020/12/06 10:14:06;;;;;;;31.40;20.13;;;5.00;99.90;;;;;;4976213;28;20599;-67
2020/12/06 10:16:32;;;;;;;27.63;18.40;;;5.10;99.90;;;;;;4975584;28;20748;-67
2020/12/06 10:18:59;;;;;;;33.83;22.13;;;5.10;99.90;;;;;;4976113;28;20251;-67
2020/12/06 10:21:25;;;;;;;29.75;20.65;;;5.10;99.90;;;;;;4975382;28;20228;-67
2020/12/06 10:23:52;;;;;;;31.00;19.42;;;5.10;99.90;;;;;;4975351;28;20212;-67
2020/12/06 10:26:18;;;;;;;30.25;20.73;;;5.10;99.90;;;;;;4975278;28;20209;-67
2020/12/06 10:28:44;;;;;;;33.03;20.52;;;5.20;99.90;;;;;;4975642;28;20209;-67
2020/12/06 10:31:10;;;;;;;31.10;20.58;;;5.20;99.90;;;;;;4974625;28;20302;-67
2020/12/06 10:33:36;;;;;;;31.50;20.58;;;5.20;99.90;;;;;;4975586;28;20209;-67
2020/12/06 10:36:02;;;;;;;30.23;19.70;;;5.20;99.90;;;;;;4975422;28;20232;-68
2020/12/06 10:38:28;;;;;;;33.40;21.58;;;5.20;99.90;;;;;;4975380;28;20275;-68
2020/12/06 10:40:55;;;;;;;31.05;20.77;;;5.20;99.90;;;;;;4974992;28;20224;-68
2020/12/06 10:43:21;;;;;;;32.08;21.15;;;5.30;99.90;;;;;;4975620;28;20216;-69
2020/12/06 10:45:47;;;;;;;29.27;22.55;;;5.30;99.90;;;;;;4974631;28;20228;-68
2020/12/06 10:48:13;;;;;;;30.02;19.20;;;5.30;99.90;;;;;;4974359;28;20209;-69
2020/12/06 10:50:40;;;;;;;28.67;19.40;;;5.30;99.90;;;;;;4974686;28;20705;-69
2020/12/06 10:53:06;;;;;;;28.88;21.13;;;5.30;99.90;;;;;;4975184;28;20583;-69
2020/12/06 10:55:32;;;;;;;31.17;20.20;;;5.30;99.90;;;;;;4975403;28;20234;-68
2020/12/06 10:57:59;;;;;;;28.85;19.73;;;5.30;99.90;;;;;;4975098;28;20228;-68
2020/12/06 11:00:25;;;;;;;33.50;21.65;;;5.30;99.90;;;;;;4974814;28;20212;-68
2020/12/06 11:02:51;;;;;;;37.70;22.27;;;5.30;99.90;;;;;;4974008;28;20636;-68
2020/12/06 11:05:17;;;;;;;36.70;22.25;;;5.30;99.90;;;;;;4975368;28;20547;-68
2020/12/06 11:07:43;;;;;;;33.10;21.05;;;5.30;99.90;;;;;;4975158;28;20267;-68
2020/12/06 11:10:09;;;;;;;34.85;21.73;;;5.30;99.90;;;;;;4974501;28;20243;-68
2020/12/06 11:12:36;;;;;;;29.35;20.55;;;5.30;99.90;;;;;;4974518;28;20258;-69
2020/12/06 11:15:03;;;;;;;29.48;20.20;;;5.30;99.90;;;;;;4975174;28;20208;-68
2020/12/06 11:17:30;;;;;;;33.95;21.30;;;5.30;99.90;;;;;;4974209;28;20693;-69
2020/12/06 11:19:58;;;;;;;29.98;20.48;;;5.30;99.90;;;;;;4974548;28;20393;-70
2020/12/06 11:22:24;;;;;;;30.23;20.95;;;5.30;99.90;;;;;;4974907;28;20233;-69
2020/12/06 11:24:50;;;;;;;34.30;21.02;;;5.30;99.90;;;;;;4975003;28;20212;-69
2020/12/06 11:27:16;;;;;;;31.92;19.80;;;5.30;99.90;;;;;;4974113;28;20205;-68
2020/12/06 11:29:42;;;;;;;31.48;20.38;;;5.30;99.90;;;;;;4973150;28;20313;-66
2020/12/06 11:32:09;;;;;;;34.70;21.67;;;5.30;99.90;;;;;;4972900;28;20770;-68
2020/12/06 11:34:35;;;;;;;35.38;22.63;;;5.30;99.90;;;;;;4974533;28;20256;-68
2020/12/06 11:37:01;;;;;;;35.53;21.35;;;5.30;99.90;;;;;;4974236;28;20232;-68
2020/12/06 11:39:27;;;;;;;31.98;21.65;;;5.30;99.90;;;;;;4973834;28;20597;-68
2020/12/06 11:41:55;;;;;;;35.70;22.67;;;5.30;99.90;;;;;;4974367;28;20299;-68
2020/12/06 11:44:22;;;;;;;27.90;18.80;;;5.30;99.90;;;;;;4974472;28;20216;-68
2020/12/06 11:46:48;;;;;;;32.50;21.30;;;5.30;99.90;;;;;;4973048;28;20213;-68
2020/12/06 11:49:15;;;;;;;33.55;22.02;;;5.40;99.90;;;;;;4973756;28;20212;-68
2020/12/06 11:51:41;;;;;;;33.55;21.55;;;5.30;99.90;;;;;;4974199;28;20659;-68
2020/12/06 11:54:07;;;;;;;35.20;20.85;;;5.30;99.90;;;;;;4974640;28;20634;-68
2020/12/06 11:56:35;;;;;;;32.22;21.13;;;5.30;99.90;;;;;;4973894;28;20280;-68
2020/12/06 11:59:01;;;;;;;36.55;21.83;;;5.30;99.90;;;;;;4973262;28;20324;-68
2020/12/06 12:01:27;;;;;;;35.58;22.27;;;5.30;99.90;;;;;;4972587;28;20277;-68
2020/12/06 12:03:53;;;;;;;33.10;20.08;;;5.30;99.90;;;;;;4974282;28;20243;-68
2020/12/06 12:06:20;;;;;;;35.22;20.70;;;5.30;99.90;;;;;;4973604;28;20205;-69
2020/12/06 12:08:51;;;;;;;31.67;20.67;;;5.30;99.90;;;;;;4973782;28;20201;-67
2020/12/06 12:11:17;;;;;;;34.45;21.25;;;5.30;99.90;;;;;;4973049;28;20255;-67
2020/12/06 12:13:43;;;;;;;29.52;20.20;;;5.30;99.90;;;;;;4973693;28;20220;-67
2020/12/06 12:16:10;;;;;;;33.30;21.33;;;5.30;99.90;;;;;;4973211;28;20240;-68
2020/12/06 12:18:36;;;;;;;34.20;20.38;;;5.30;99.90;;;;;;4972495;28;20201;-68
2020/12/06 12:21:02;;;;;;;36.90;24.70;;;5.30;99.90;;;;;;4973685;28;20232;-69
2020/12/06 12:23:29;;;;;;;31.77;20.67;;;5.40;99.90;;;;;;4974026;28;20594;-67
2020/12/06 12:25:55;;;;;;;34.13;20.13;;;5.40;99.90;;;;;;4973516;28;20627;-67
2020/12/06 12:28:21;;;;;;;36.60;21.83;;;5.30;99.90;;;;;;4973718;28;20259;-69
2020/12/06 12:30:47;;;;;;;30.90;21.08;;;5.40;99.90;;;;;;4973237;28;20828;-68
2020/12/06 12:33:13;;;;;;;29.83;20.42;;;5.40;99.90;;;;;;4973956;28;20269;-68
2020/12/06 12:35:39;;;;;;;33.17;22.45;;;5.40;99.90;;;;;;4974137;28;20259;-68
2020/12/06 12:38:06;;;;;;;31.50;20.40;;;5.40;99.90;;;;;;4973193;28;20221;-68
2020/12/06 12:40:33;;;;;;;32.60;21.60;;;5.40;99.90;;;;;;4973750;28;20231;-68
2020/12/06 12:43:00;;;;;;;34.88;21.35;;;5.40;99.90;;;;;;4973345;28;20211;-68
2020/12/06 12:45:26;;;;;;;32.75;20.00;;;5.40;99.90;;;;;;4973660;28;20221;-68
2020/12/06 12:47:55;;;;;;;38.58;23.55;;;5.50;99.90;;;;;;4972487;28;20208;-68
2020/12/06 12:50:21;;;;;;;34.38;22.60;;;5.50;99.90;;;;;;4974084;28;20212;-67
2020/12/06 12:52:49;;;;;;;32.35;21.67;;;5.40;99.90;;;;;;4973310;28;20665;-67
2020/12/06 12:55:15;;;;;;;33.97;21.80;;;5.50;99.90;;;;;;4973707;28;20263;-67
2020/12/06 12:57:42;;;;;;;37.30;23.30;;;5.50;99.90;;;;;;4972969;28;20319;-67
2020/12/06 13:00:08;;;;;;;33.90;22.00;;;5.40;99.90;;;;;;4973658;28;20216;-67
2020/12/06 13:02:34;;;;;;;33.83;21.65;;;5.40;99.90;;;;;;4972441;28;20704;-66
2020/12/06 13:05:05;;;;;;;42.00;23.08;;;5.40;99.90;;;;;;4974662;28;20271;-67
2020/12/06 13:07:31;;;;;;;34.15;21.58;;;5.40;99.90;;;;;;4972901;28;20219;-67
2020/12/06 13:09:58;;;;;;;35.58;22.15;;;5.40;99.90;;;;;;4974857;28;20208;-67
2020/12/06 13:12:24;;;;;;;34.45;23.50;;;5.40;99.90;;;;;;4977386;28;20232;-67
2020/12/06 13:14:51;;;;;;;32.85;21.80;;;5.40;99.90;;;;;;4978257;28;20590;-67
2020/12/06 13:17:17;;;;;;;36.47;21.70;;;5.40;99.90;;;;;;4976392;28;20569;-68
2020/12/06 13:19:43;;;;;;;32.38;21.65;;;5.50;99.90;;;;;;4972370;28;20209;-68
2020/12/06 13:22:09;;;;;;;28.92;20.75;;;5.40;99.90;;;;;;4977352;28;20225;-66
2020/12/06 13:24:35;;;;;;;31.80;21.85;;;5.40;99.90;;;;;;4977271;28;20295;-68
2020/12/06 13:27:01;;;;;;;33.45;22.90;;;5.40;99.90;;;;;;4977708;28;20208;-68
2020/12/06 13:29:27;;;;;;;41.22;23.25;;;5.40;99.90;;;;;;4977261;28;20622;-66
2020/12/06 13:31:54;;;;;;;41.70;23.15;;;5.40;99.90;;;;;;4976473;28;20774;-67
2020/12/06 13:34:20;;;;;;;41.13;23.90;;;5.40;99.90;;;;;;4977653;28;20208;-67
2020/12/06 13:36:50;;;;;;;35.88;21.95;;;5.40;99.90;;;;;;4976558;28;20623;-69
2020/12/06 13:39:16;;;;;;;36.05;21.65;;;5.30;99.90;;;;;;4976607;28;20529;-66
2020/12/06 13:41:42;;;;;;;36.63;22.58;;;5.30;99.90;;;;;;4976580;28;20578;-66
2020/12/06 13:44:08;;;;;;;33.10;22.00;;;5.30;99.90;;;;;;4977414;28;20209;-66
2020/12/06 13:46:35;;;;;;;38.60;24.00;;;5.30;99.90;;;;;;4976099;28;20208;-67
2020/12/06 13:49:01;;;;;;;38.42;23.67;;;5.30;99.90;;;;;;4976704;28;20649;-67
2020/12/06 13:51:28;;;;;;;39.83;24.88;;;5.30;99.90;;;;;;4976398;28;20237;-67
2020/12/06 13:53:54;;;;;;;34.92;22.35;;;5.30;99.90;;;;;;4976465;28;20209;-67
2020/12/06 13:56:20;;;;;;;36.85;24.10;;;5.30;99.90;;;;;;4974444;28;20217;-67
2020/12/06 13:58:46;;;;;;;36.03;23.67;;;5.30;99.90;;;;;;4975710;28;20270;-67
2020/12/06 14:01:12;;;;;;;34.28;22.45;;;5.40;99.90;;;;;;4975472;28;20273;-67
2020/12/06 14:03:39;;;;;;;39.50;24.20;;;5.30;99.90;;;;;;4975895;28;20743;-67
2020/12/06 14:06:06;;;;;;;37.47;24.88;;;5.40;99.90;;;;;;4975715;28;20263;-67
2020/12/06 14:08:32;;;;;;;30.63;22.67;;;5.30;99.90;;;;;;4976402;28;20595;-67
2020/12/06 14:10:59;;;;;;;38.22;22.10;;;5.30;99.90;;;;;;4976337;28;20319;-67
2020/12/06 14:13:25;;;;;;;35.22;22.80;;;5.30;99.90;;;;;;4976482;28;20673;-67
2020/12/06 14:15:51;;;;;;;37.20;23.85;;;5.30;99.90;;;;;;4975486;28;20271;-68
2020/12/06 14:18:17;;;;;;;38.92;22.95;;;5.30;99.90;;;;;;4975649;28;20232;-68
2020/12/06 14:20:43;;;;;;;38.22;23.65;;;5.30;99.90;;;;;;4975795;28;20389;-68
2020/12/06 14:23:10;;;;;;;39.10;26.13;;;5.30;99.90;;;;;;4975442;28;20691;-68
2020/12/06 14:25:37;;;;;;;41.53;25.50;;;5.30;99.90;;;;;;4975692;28;20208;-68
2020/12/06 14:28:03;;;;;;;36.00;23.80;;;5.30;99.90;;;;;;4975634;28;20236;-68
2020/12/06 14:30:29;;;;;;;35.50;23.45;;;5.30;99.90;;;;;;4976466;28;20712;-68
2020/12/06 14:32:55;;;;;;;40.05;23.70;;;5.30;99.90;;;;;;4975304;28;20213;-68
2020/12/06 14:35:21;;;;;;;38.63;23.55;;;5.30;99.90;;;;;;4976592;28;20308;-68
2020/12/06 14:37:47;;;;;;;42.80;26.13;;;5.30;99.90;;;;;;4975559;28;20287;-68
2020/12/06 14:40:14;;;;;;;39.95;26.02;;;5.30;99.90;;;;;;4976570;28;20212;-68
2020/12/06 14:42:41;;;;;;;40.80;25.00;;;5.30;99.90;;;;;;4975517;28;20524;-68
2020/12/06 14:45:07;;;;;;;40.10;26.02;;;5.20;99.90;;;;;;4975207;28;20611;-68
2020/12/06 14:47:33;;;;;;;38.20;23.08;;;5.20;99.90;;;;;;4974460;28;20607;-68
2020/12/06 14:49:59;;;;;;;38.55;24.45;;;5.20;99.90;;;;;;4976241;28;20208;-67
2020/12/06 14:52:25;;;;;;;42.25;27.05;;;5.20;99.90;;;;;;4975737;28;20232;-68
2020/12/06 14:54:51;;;;;;;42.33;26.90;;;5.30;99.90;;;;;;4976086;28;20263;-68
2020/12/06 14:57:18;;;;;;;39.67;25.98;;;5.20;99.90;;;;;;4974752;28;20244;-67
2020/12/06 14:59:44;;;;;;;44.70;28.27;;;5.20;99.90;;;;;;4976403;28;20708;-67
2020/12/06 15:02:10;;;;;;;47.83;29.08;;;5.20;99.90;;;;;;4975234;28;20232;-67
2020/12/06 15:04:37;;;;;;;39.85;27.70;;;5.20;99.90;;;;;;4975821;28;20200;-67
2020/12/06 15:07:04;;;;;;;44.70;27.55;;;5.10;99.90;;;;;;4975053;28;20209;-67
2020/12/06 15:09:30;;;;;;;45.03;28.25;;;5.10;99.90;;;;;;4976057;28;20299;-68
2020/12/06 15:11:56;;;;;;;42.70;28.48;;;5.10;99.90;;;;;;4974976;28;20720;-67
2020/12/06 15:14:23;;;;;;;47.10;29.35;;;5.00;99.90;;;;;;4975448;28;20242;-67
2020/12/06 15:16:49;;;;;;;38.88;26.65;;;5.00;99.90;;;;;;4973778;28;20217;-67
2020/12/06 15:19:15;;;;;;;40.80;27.00;;;5.00;99.90;;;;;;4974887;28;20209;-68
2020/12/06 15:21:41;;;;;;;47.83;28.15;;;4.90;99.90;;;;;;4974585;28;20232;-67
2020/12/06 15:24:07;;;;;;;45.92;28.52;;;4.90;99.90;;;;;;4974846;28;20212;-67
2020/12/06 15:26:33;;;;;;;50.05;31.75;;;4.80;99.90;;;;;;4974293;28;20201;-67
2020/12/06 15:29:00;;;;;;;52.03;31.85;;;4.80;99.90;;;;;;4974936;28;20217;-67
2020/12/06 15:31:27;;;;;;;48.25;29.35;;;4.80;99.90;;;;;;4973874;28;20645;-68
2020/12/06 15:33:53;;;;;;;44.75;30.05;;;4.80;99.90;;;;;;4972937;28;20216;-68
2020/12/06 15:36:19;;;;;;;44.60;29.40;;;4.80;99.90;;;;;;4972363;28;20252;-69
2020/12/06 15:38:46;;;;;;;48.42;30.30;;;4.70;99.90;;;;;;4974596;28;20204;-69
2020/12/06 15:41:14;;;;;;;50.00;30.55;;;4.70;99.90;;;;;;4974061;28;20227;-69
2020/12/06 15:43:41;;;;;;;46.38;29.77;;;4.70;99.90;;;;;;4974109;28;20212;-69
2020/12/06 15:46:09;;;;;;;47.83;28.95;;;4.70;99.90;;;;;;4972328;28;20988;-68
2020/12/06 15:48:37;;;;;;;50.63;31.55;;;4.70;99.90;;;;;;4974514;28;20215;-69
2020/12/06 15:51:04;;;;;;;56.70;34.38;;;4.70;99.90;;;;;;4973290;28;20368;-69
2020/12/06 15:53:31;;;;;;;55.25;31.65;;;4.70;99.90;;;;;;4973589;28;20232;-68
2020/12/06 15:55:57;;;;;;;55.00;33.10;;;4.70;99.90;;;;;;4972718;28;20881;-67
2020/12/06 15:58:23;;;;;;;50.88;31.77;;;4.70;99.90;;;;;;4973899;28;20220;-68
2020/12/06 16:00:49;;;;;;;50.67;29.65;;;4.60;99.90;;;;;;4972914;28;20224;-67
2020/12/06 16:03:15;;;;;;;54.33;33.50;;;4.60;99.90;;;;;;4973350;28;20556;-67
2020/12/06 16:05:47;;;;;;;50.17;30.17;;;4.60;99.90;;;;;;4973304;28;20216;-68
2020/12/06 16:08:13;;;;;;;48.60;33.25;;;4.60;99.90;;;;;;4974339;28;20204;-69
2020/12/06 16:10:39;;;;;;;58.70;38.97;;;4.60;99.90;;;;;;4973931;28;20264;-70
2020/12/06 16:13:05;;;;;;;63.50;37.30;;;4.60;99.90;;;;;;4973216;28;20278;-68
2020/12/06 16:15:31;;;;;;;53.50;38.03;;;4.50;99.90;;;;;;4973340;28;20216;-71
2020/12/06 16:17:57;;;;;;;56.55;38.33;;;4.50;99.90;;;;;;4972544;28;20232;-70
2020/12/06 16:20:24;;;;;;;56.28;35.75;;;4.50;99.90;;;;;;4973432;28;20251;-69
2020/12/06 16:22:51;;;;;;;58.72;34.30;;;4.50;99.90;;;;;;4972867;28;20721;-70
2020/12/06 16:25:18;;;;;;;58.20;33.58;;;4.50;99.90;;;;;;4974027;28;20255;-67
2020/12/06 16:27:44;;;;;;;58.88;34.80;;;4.50;99.90;;;;;;4973303;28;20234;-69
2020/12/06 16:30:10;;;;;;;54.72;33.78;;;4.50;99.90;;;;;;4973605;28;20259;-69
2020/12/06 16:32:36;;;;;;;52.25;33.25;;;4.40;99.90;;;;;;4972723;28;20263;-69
2020/12/06 16:35:03;;;;;;;62.15;35.72;;;4.40;99.90;;;;;;4973236;28;20209;-69
2020/12/06 16:37:30;;;;;;;58.65;31.90;;;4.40;99.90;;;;;;4972438;28;20239;-69
2020/12/06 16:39:57;;;;;;;57.38;33.65;;;4.40;99.90;;;;;;4970176;28;20212;-69
2020/12/06 16:42:23;;;;;;;48.40;33.65;;;4.40;99.90;;;;;;4971821;28;20700;-69
2020/12/06 16:44:49;;;;;;;55.42;32.72;;;4.40;99.90;;;;;;4972619;28;20267;-69
2020/12/06 16:47:16;;;;;;;52.97;32.38;;;4.30;99.90;;;;;;4970527;28;20213;-68
2020/12/06 16:49:46;;;;;;;46.60;31.40;;;4.30;99.90;;;;;;4977612;28;20250;-69
2020/12/06 16:52:13;;;;;;;51.03;30.33;;;4.30;99.90;;;;;;4971941;28;20228;-69
2020/12/06 16:54:39;;;;;;;49.80;29.10;;;4.30;99.90;;;;;;4977483;28;20214;-68
2020/12/06 16:57:06;;;;;;;51.03;30.90;;;4.30;99.90;;;;;;4972438;28;20220;-71
2020/12/06 16:59:32;;;;;;;58.05;34.42;;;4.20;99.90;;;;;;4970082;28;20228;-71
2020/12/06 17:01:58;;;;;;;48.78;34.13;;;4.20;99.90;;;;;;4970842;28;20302;-71
2020/12/06 17:04:24;;;;;;;55.72;33.63;;;4.20;99.90;;;;;;4972185;28;20209;-70
2020/12/06 17:06:51;;;;;;;57.42;35.53;;;4.20;99.90;;;;;;4972544;28;20265;-70
2020/12/06 17:09:18;;;;;;;46.58;31.90;;;4.20;99.90;;;;;;4972964;28;20209;-68
2020/12/06 17:11:44;;;;;;;56.00;34.70;;;4.20;99.90;;;;;;4965849;28;20287;-69
2020/12/06 17:14:11;;;;;;;60.97;38.17;;;4.10;99.90;;;;;;4956745;28;20217;-69
2020/12/06 17:16:38;;;;;;;56.90;34.50;;;4.10;99.90;;;;;;4976520;28;20218;-68
2020/12/06 17:19:04;;;;;;;52.13;34.55;;;4.10;99.90;;;;;;4967639;28;20244;-68
2020/12/06 17:21:30;;;;;;;61.88;35.30;;;4.00;99.90;;;;;;4968471;28;20232;-68
2020/12/06 17:23:56;;;;;;;49.97;34.00;;;4.00;99.90;;;;;;4966775;28;20652;-68
2020/12/06 17:26:22;;;;;;;55.63;36.10;;;4.00;99.90;;;;;;4972778;28;20267;-69
2020/12/06 17:28:48;;;;;;;60.45;34.63;;;4.00;99.90;;;;;;4971249;28;20193;-69
2020/12/06 17:31:15;;;;;;;55.00;33.72;;;4.00;99.90;;;;;;4972099;28;20287;-69
2020/12/06 17:33:41;;;;;;;52.30;34.35;;;4.00;99.90;;;;;;4971884;28;20204;-68